Huvudsida
METAR-TAF:

METAR-TAF

Flygplatser :

Hongkong, Kina

Hongkongs internationella flygplats

latitud: 22-19N, longitud: 113-55E, höjd: 9 m

Aktuellt väderrapport

Denna rapport gjordes för 6 minuter sedan, klockan 01:00 UTC
Vind 5 kt från nordost
Temperatur 24°C
Fuktighet 69%
Tryck 1013 hPa
Sikt 10 km eller mer
Få moln på en höjd av 2500 ft
Spridda moln på en höjd av 3500 ft

METAR: VHHH 250100Z 05005KT 9999 FEW025 SCT035 24/18 Q1013 NOSIG

Tid: 09:06 (01:06 UTC)

Väderprognos

Denna rapport gjordes för 2 timmar och 6 minuter sedan, klockan 23:00 UTC
Prognos gäller från 25 kl. 00 UTC till 26 kl. 06 UTC
Vind 10 kt från ost
Sikt: 9000 m
Få moln på en höjd av 1500 ft
Spridda moln på en höjd av 3000 ft
Temporärt
från 25 kl. 00 UTC till 25 kl. 03 UTC
Sikt: 4000 m
regnskurar
Temporärt
från 25 kl. 04 UTC till 25 kl. 08 UTC
Vind 10 kt från nordväst

TAF: VHHH 242300Z 2500/2606 08010KT 9000 FEW015 SCT030 TX26/2506Z TX26/2606Z TN23/2523Z TEMPO 2500/2503 4000 SHRA TEMPO 2504/2508 32010KT

Aktuella väderrapporter och prognoser från 4000 flygplatser (METAR- och TAF-rapporter).

De tillgängliga stationerna syns som gula och röda prickar på kartan.

För musen över prickarna för att se namnen på stationerna.

Klicka sedan för att få väderrapporter och prognoser.

För att ändra kartan: Klicka på de gröna knapparna med ett svart kors på för att zooma in; den gröna knappen med ett streck på för att zooma ut; eller på de gröna pilarna för angränsande kartor.


METAR-TAF: